| |
Missouri Department of Transportation

Social Media Facebook Twitter Flickr Instagram YouTube RSS

Current AWOS Information

 
AWOS Home - General Info for all Airports
Current AWOS for all Airports - Current METAR for all Airports
Glossary - Disclaimer - Other Links


HANNIBAL--HANNIBAL REGIONAL--KHAE
 
Recent AWOS History
 
06/30/16     11:39 PM CDT      04:39 GMT
Air Temperature 69°F (21°C ) 1st Cloud Layer Clear
Dew Point 55°F (13°C) 2nd Cloud Layer  
Barometric Pressure 30.07 in Hg. 3rd Cloud Layer  
Wind Speed 3 mph (3 knots) Density Altitude  
Peak Wind Gusts   Variable Wind Directions  
Wind Direction Quadrant(130°) Variable Visibility  
Visibility MM statute miles  

Thunderstorm and Precipitation Identification:  Missing
Thunderstorm Remarks: 

Current METAR Record: METAR KHAE 300445Z AUTO 11003KT CLR 20/13 A3007 RMK AO2 PWINO

 

 

 

About Us
How Do I...
Contact Us
Missouri Department of Transportation
Central Office
105 W. Capitol Avenue
Jefferson City, MO 65102
1-888-ASK-MODOT (275-6636)
1-866-831-6277 (Motor Carrier Services)
Driver's License Offices
horz_bar
| | |
Missouri State Government
© 2013 Missouri Department of Transportation. All Rights Reserved.   Privacy Policy.
 
 
 
 
RSS FeedYoutubeBlogFlickrTwitter Facebook